sensor_id;sensor_type;location;lat;lon;timestamp;P1;durP1;ratioP1;P2;durP2;ratioP2
16031;SDS011;8120;48.308;8.914;2023-04-19T00:01:42;10.80;;;7.40;;
16031;SDS011;8120;48.308;8.914;2023-04-19T00:04:10;10.43;;;7.07;;
16031;SDS011;8120;48.308;8.914;2023-04-19T00:06:40;10.83;;;7.00;;
16031;SDS011;8120;48.308;8.914;2023-04-19T00:09:16;11.63;;;8.07;;
16031;SDS011;8120;48.308;8.914;2023-04-19T00:11:44;10.60;;;7.90;;
16031;SDS011;8120;48.308;8.914;2023-04-19T00:14:12;10.73;;;7.67;;
16031;SDS011;8120;48.308;8.914;2023-04-19T00:16:40;11.37;;;7.37;;
16031;SDS011;8120;48.308;8.914;2023-04-19T00:19:08;13.53;;;9.13;;
16031;SDS011;8120;48.308;8.914;2023-04-19T00:21:36;12.97;;;8.33;;
16031;SDS011;8120;48.308;8.914;2023-04-19T00:24:04;10.60;;;7.90;;
16031;SDS011;8120;48.308;8.914;2023-04-19T00:26:33;12.20;;;8.23;;
16031;SDS011;8120;48.308;8.914;2023-04-19T00:29:01;12.37;;;8.67;;
16031;SDS011;8120;48.308;8.914;2023-04-19T00:31:29;12.37;;;8.80;;
16031;SDS011;8120;48.308;8.914;2023-04-19T00:33:57;13.37;;;9.30;;
16031;SDS011;8120;48.308;8.914;2023-04-19T00:36:25;14.70;;;9.67;;
16031;SDS011;8120;48.308;8.914;2023-04-19T00:38:53;13.00;;;8.73;;
16031;SDS011;8120;48.308;8.914;2023-04-19T00:41:20;11.13;;;7.23;;
16031;SDS011;8120;48.308;8.914;2023-04-19T00:43:50;13.17;;;8.83;;
16031;SDS011;8120;48.308;8.914;2023-04-19T00:46:17;13.47;;;9.13;;
16031;SDS011;8120;48.308;8.914;2023-04-19T00:48:46;12.63;;;8.63;;
16031;SDS011;8120;48.308;8.914;2023-04-19T00:51:14;12.50;;;8.77;;
16031;SDS011;8120;48.308;8.914;2023-04-19T00:53:43;11.93;;;8.40;;
16031;SDS011;8120;48.308;8.914;2023-04-19T00:56:10;12.27;;;8.50;;
16031;SDS011;8120;48.308;8.914;2023-04-19T00:58:40;13.07;;;9.63;;
16031;SDS011;8120;48.308;8.914;2023-04-19T01:01:09;11.70;;;8.70;;
16031;SDS011;8120;48.308;8.914;2023-04-19T01:03:37;11.40;;;8.33;;
16031;SDS011;8120;48.308;8.914;2023-04-19T01:06:05;11.70;;;7.60;;
16031;SDS011;8120;48.308;8.914;2023-04-19T01:08:33;11.70;;;8.03;;
16031;SDS011;8120;48.308;8.914;2023-04-19T01:11:01;12.27;;;8.47;;
16031;SDS011;8120;48.308;8.914;2023-04-19T01:13:29;12.90;;;9.33;;
16031;SDS011;8120;48.308;8.914;2023-04-19T01:15:57;14.13;;;8.37;;
16031;SDS011;8120;48.308;8.914;2023-04-19T01:18:27;11.73;;;8.40;;
16031;SDS011;8120;48.308;8.914;2023-04-19T01:20:58;12.93;;;8.30;;
16031;SDS011;8120;48.308;8.914;2023-04-19T01:23:27;13.73;;;9.13;;
16031;SDS011;8120;48.308;8.914;2023-04-19T01:25:55;12.30;;;8.60;;
16031;SDS011;8120;48.308;8.914;2023-04-19T01:28:23;13.37;;;8.67;;
16031;SDS011;8120;48.308;8.914;2023-04-19T01:30:51;13.63;;;8.43;;
16031;SDS011;8120;48.308;8.914;2023-04-19T01:33:20;13.77;;;9.57;;
16031;SDS011;8120;48.308;8.914;2023-04-19T01:35:48;13.60;;;8.73;;
16031;SDS011;8120;48.308;8.914;2023-04-19T01:38:16;14.60;;;9.93;;
16031;SDS011;8120;48.308;8.914;2023-04-19T01:40:45;13.13;;;8.40;;
16031;SDS011;8120;48.308;8.914;2023-04-19T01:43:14;11.40;;;8.73;;
16031;SDS011;8120;48.308;8.914;2023-04-19T01:45:43;12.50;;;9.77;;
16031;SDS011;8120;48.308;8.914;2023-04-19T01:48:11;14.07;;;9.47;;
16031;SDS011;8120;48.308;8.914;2023-04-19T01:50:39;13.77;;;9.13;;
16031;SDS011;8120;48.308;8.914;2023-04-19T01:53:07;14.17;;;9.93;;
16031;SDS011;8120;48.308;8.914;2023-04-19T01:55:34;14.03;;;9.33;;
16031;SDS011;8120;48.308;8.914;2023-04-19T01:58:04;15.53;;;10.53;;
16031;SDS011;8120;48.308;8.914;2023-04-19T02:00:32;13.53;;;9.27;;
16031;SDS011;8120;48.308;8.914;2023-04-19T02:03:00;15.23;;;10.27;;
16031;SDS011;8120;48.308;8.914;2023-04-19T02:05:28;15.67;;;10.83;;
16031;SDS011;8120;48.308;8.914;2023-04-19T02:07:56;13.57;;;10.07;;
16031;SDS011;8120;48.308;8.914;2023-04-19T02:10:24;15.70;;;10.27;;
16031;SDS011;8120;48.308;8.914;2023-04-19T02:12:52;14.40;;;10.03;;
16031;SDS011;8120;48.308;8.914;2023-04-19T02:15:21;14.77;;;10.50;;
16031;SDS011;8120;48.308;8.914;2023-04-19T02:17:49;16.27;;;11.30;;
16031;SDS011;8120;48.308;8.914;2023-04-19T02:20:17;17.03;;;11.70;;
16031;SDS011;8120;48.308;8.914;2023-04-19T02:22:45;16.00;;;10.97;;
16031;SDS011;8120;48.308;8.914;2023-04-19T02:25:13;16.50;;;11.53;;
16031;SDS011;8120;48.308;8.914;2023-04-19T02:27:41;15.87;;;10.67;;
16031;SDS011;8120;48.308;8.914;2023-04-19T02:30:09;15.30;;;10.97;;
16031;SDS011;8120;48.308;8.914;2023-04-19T02:32:39;18.63;;;11.40;;
16031;SDS011;8120;48.308;8.914;2023-04-19T02:35:07;15.60;;;10.70;;
16031;SDS011;8120;48.308;8.914;2023-04-19T02:37:35;15.90;;;11.33;;
16031;SDS011;8120;48.308;8.914;2023-04-19T02:40:03;16.83;;;11.00;;
16031;SDS011;8120;48.308;8.914;2023-04-19T02:42:32;18.53;;;11.83;;
16031;SDS011;8120;48.308;8.914;2023-04-19T02:45:01;17.53;;;10.80;;
16031;SDS011;8120;48.308;8.914;2023-04-19T02:47:28;18.87;;;11.73;;
16031;SDS011;8120;48.308;8.914;2023-04-19T02:49:58;16.17;;;11.77;;
16031;SDS011;8120;48.308;8.914;2023-04-19T02:52:26;19.43;;;12.83;;
16031;SDS011;8120;48.308;8.914;2023-04-19T02:54:54;19.50;;;12.97;;
16031;SDS011;8120;48.308;8.914;2023-04-19T02:57:21;20.53;;;12.57;;
16031;SDS011;8120;48.308;8.914;2023-04-19T02:59:49;16.70;;;11.13;;
16031;SDS011;8120;48.308;8.914;2023-04-19T03:02:17;17.40;;;12.20;;
16031;SDS011;8120;48.308;8.914;2023-04-19T03:04:45;18.50;;;12.67;;
16031;SDS011;8120;48.308;8.914;2023-04-19T03:07:15;17.27;;;11.80;;
16031;SDS011;8120;48.308;8.914;2023-04-19T03:09:43;20.03;;;12.33;;
16031;SDS011;8120;48.308;8.914;2023-04-19T03:12:10;19.00;;;12.23;;
16031;SDS011;8120;48.308;8.914;2023-04-19T03:14:38;23.97;;;12.90;;
16031;SDS011;8120;48.308;8.914;2023-04-19T03:17:06;19.40;;;11.80;;
16031;SDS011;8120;48.308;8.914;2023-04-19T03:19:34;19.53;;;11.67;;
16031;SDS011;8120;48.308;8.914;2023-04-19T03:22:02;19.03;;;13.57;;
16031;SDS011;8120;48.308;8.914;2023-04-19T03:24:31;19.47;;;11.70;;
16031;SDS011;8120;48.308;8.914;2023-04-19T03:27:02;18.77;;;11.77;;
16031;SDS011;8120;48.308;8.914;2023-04-19T03:29:30;18.90;;;12.97;;
16031;SDS011;8120;48.308;8.914;2023-04-19T03:31:58;18.60;;;12.70;;
16031;SDS011;8120;48.308;8.914;2023-04-19T03:34:26;20.97;;;12.30;;
16031;SDS011;8120;48.308;8.914;2023-04-19T03:36:54;20.17;;;12.93;;
16031;SDS011;8120;48.308;8.914;2023-04-19T03:39:22;20.50;;;13.10;;
16031;SDS011;8120;48.308;8.914;2023-04-19T03:41:51;20.77;;;12.33;;
16031;SDS011;8120;48.308;8.914;2023-04-19T03:44:19;18.07;;;11.30;;
16031;SDS011;8120;48.308;8.914;2023-04-19T03:46:47;18.97;;;12.63;;
16031;SDS011;8120;48.308;8.914;2023-04-19T03:49:15;21.17;;;12.00;;
16031;SDS011;8120;48.308;8.914;2023-04-19T03:51:42;17.20;;;11.67;;
16031;SDS011;8120;48.308;8.914;2023-04-19T03:54:10;17.43;;;12.73;;
16031;SDS011;8120;48.308;8.914;2023-04-19T03:56:38;20.23;;;11.87;;
16031;SDS011;8120;48.308;8.914;2023-04-19T03:59:08;19.03;;;13.27;;
16031;SDS011;8120;48.308;8.914;2023-04-19T04:01:35;20.23;;;13.00;;
16031;SDS011;8120;48.308;8.914;2023-04-19T04:04:07;19.80;;;12.57;;
16031;SDS011;8120;48.308;8.914;2023-04-19T04:06:35;18.93;;;12.63;;
16031;SDS011;8120;48.308;8.914;2023-04-19T04:09:03;19.53;;;12.27;;
16031;SDS011;8120;48.308;8.914;2023-04-19T04:11:31;21.43;;;12.87;;
16031;SDS011;8120;48.308;8.914;2023-04-19T04:13:59;18.97;;;12.20;;
16031;SDS011;8120;48.308;8.914;2023-04-19T04:16:28;20.37;;;12.70;;
16031;SDS011;8120;48.308;8.914;2023-04-19T04:18:56;20.17;;;13.73;;
16031;SDS011;8120;48.308;8.914;2023-04-19T04:21:24;19.93;;;13.63;;
16031;SDS011;8120;48.308;8.914;2023-04-19T04:23:52;19.33;;;13.17;;
16031;SDS011;8120;48.308;8.914;2023-04-19T04:26:20;19.60;;;12.57;;
16031;SDS011;8120;48.308;8.914;2023-04-19T04:28:50;20.23;;;13.43;;
16031;SDS011;8120;48.308;8.914;2023-04-19T04:31:19;19.90;;;13.43;;
16031;SDS011;8120;48.308;8.914;2023-04-19T04:33:48;20.73;;;13.27;;
16031;SDS011;8120;48.308;8.914;2023-04-19T04:36:18;17.37;;;11.73;;
16031;SDS011;8120;48.308;8.914;2023-04-19T04:38:46;18.00;;;11.90;;
16031;SDS011;8120;48.308;8.914;2023-04-19T04:41:14;17.80;;;12.17;;
16031;SDS011;8120;48.308;8.914;2023-04-19T04:43:43;21.10;;;12.77;;
16031;SDS011;8120;48.308;8.914;2023-04-19T04:46:33;19.80;;;13.20;;
16031;SDS011;8120;48.308;8.914;2023-04-19T04:49:02;19.23;;;13.47;;
16031;SDS011;8120;48.308;8.914;2023-04-19T04:51:30;21.10;;;13.53;;
16031;SDS011;8120;48.308;8.914;2023-04-19T04:53:58;18.80;;;12.50;;
16031;SDS011;8120;48.308;8.914;2023-04-19T04:56:26;19.37;;;12.40;;
16031;SDS011;8120;48.308;8.914;2023-04-19T04:58:54;19.30;;;12.97;;
16031;SDS011;8120;48.308;8.914;2023-04-19T05:01:22;19.70;;;13.30;;
16031;SDS011;8120;48.308;8.914;2023-04-19T05:03:50;27.23;;;16.20;;
16031;SDS011;8120;48.308;8.914;2023-04-19T05:06:19;19.33;;;13.47;;
16031;SDS011;8120;48.308;8.914;2023-04-19T05:08:47;21.47;;;14.07;;
16031;SDS011;8120;48.308;8.914;2023-04-19T05:11:15;21.97;;;12.93;;
16031;SDS011;8120;48.308;8.914;2023-04-19T05:13:43;22.00;;;14.50;;
16031;SDS011;8120;48.308;8.914;2023-04-19T05:16:15;22.00;;;14.03;;
16031;SDS011;8120;48.308;8.914;2023-04-19T05:18:51;22.10;;;13.57;;
16031;SDS011;8120;48.308;8.914;2023-04-19T05:21:20;19.40;;;13.07;;
16031;SDS011;8120;48.308;8.914;2023-04-19T05:23:48;21.77;;;13.70;;
16031;SDS011;8120;48.308;8.914;2023-04-19T05:26:18;21.57;;;13.70;;
16031;SDS011;8120;48.308;8.914;2023-04-19T05:28:46;20.60;;;13.57;;
16031;SDS011;8120;48.308;8.914;2023-04-19T05:31:14;20.03;;;14.20;;
16031;SDS011;8120;48.308;8.914;2023-04-19T05:33:42;21.13;;;14.27;;
16031;SDS011;8120;48.308;8.914;2023-04-19T05:36:10;22.33;;;13.63;;
16031;SDS011;8120;48.308;8.914;2023-04-19T05:38:39;23.47;;;13.70;;
16031;SDS011;8120;48.308;8.914;2023-04-19T05:41:07;20.27;;;12.73;;
16031;SDS011;8120;48.308;8.914;2023-04-19T05:43:37;22.43;;;14.07;;
16031;SDS011;8120;48.308;8.914;2023-04-19T05:46:04;21.70;;;13.37;;
16031;SDS011;8120;48.308;8.914;2023-04-19T05:48:32;21.50;;;14.63;;
16031;SDS011;8120;48.308;8.914;2023-04-19T05:51:00;20.10;;;13.37;;
16031;SDS011;8120;48.308;8.914;2023-04-19T05:53:28;23.70;;;14.00;;
16031;SDS011;8120;48.308;8.914;2023-04-19T05:55:58;22.20;;;13.70;;
16031;SDS011;8120;48.308;8.914;2023-04-19T05:58:25;22.97;;;13.80;;
16031;SDS011;8120;48.308;8.914;2023-04-19T06:00:53;22.23;;;13.23;;
16031;SDS011;8120;48.308;8.914;2023-04-19T06:03:21;21.07;;;13.80;;
16031;SDS011;8120;48.308;8.914;2023-04-19T06:05:53;19.70;;;13.57;;
16031;SDS011;8120;48.308;8.914;2023-04-19T06:08:21;23.00;;;13.37;;
16031;SDS011;8120;48.308;8.914;2023-04-19T06:10:49;22.33;;;13.60;;
16031;SDS011;8120;48.308;8.914;2023-04-19T06:13:24;21.17;;;13.67;;
16031;SDS011;8120;48.308;8.914;2023-04-19T06:15:52;20.07;;;14.17;;
16031;SDS011;8120;48.308;8.914;2023-04-19T06:18:20;23.33;;;15.07;;
16031;SDS011;8120;48.308;8.914;2023-04-19T06:20:48;20.10;;;13.60;;
16031;SDS011;8120;48.308;8.914;2023-04-19T06:23:16;22.70;;;13.80;;
16031;SDS011;8120;48.308;8.914;2023-04-19T06:25:44;23.43;;;14.33;;
16031;SDS011;8120;48.308;8.914;2023-04-19T06:28:14;18.83;;;13.13;;
16031;SDS011;8120;48.308;8.914;2023-04-19T06:30:43;19.77;;;14.17;;
16031;SDS011;8120;48.308;8.914;2023-04-19T06:33:11;20.67;;;14.63;;
16031;SDS011;8120;48.308;8.914;2023-04-19T06:35:38;20.43;;;13.57;;
16031;SDS011;8120;48.308;8.914;2023-04-19T06:38:06;18.80;;;13.03;;
16031;SDS011;8120;48.308;8.914;2023-04-19T06:40:34;22.07;;;13.47;;
16031;SDS011;8120;48.308;8.914;2023-04-19T06:43:02;19.77;;;13.97;;
16031;SDS011;8120;48.308;8.914;2023-04-19T06:45:31;21.57;;;13.97;;
16031;SDS011;8120;48.308;8.914;2023-04-19T06:48:00;20.93;;;12.93;;
16031;SDS011;8120;48.308;8.914;2023-04-19T06:50:28;22.83;;;14.83;;
16031;SDS011;8120;48.308;8.914;2023-04-19T06:52:57;19.30;;;13.90;;
16031;SDS011;8120;48.308;8.914;2023-04-19T06:55:24;23.90;;;14.97;;
16031;SDS011;8120;48.308;8.914;2023-04-19T06:57:52;21.37;;;14.27;;
16031;SDS011;8120;48.308;8.914;2023-04-19T07:00:20;19.60;;;14.27;;
16031;SDS011;8120;48.308;8.914;2023-04-19T07:02:48;18.30;;;13.50;;
16031;SDS011;8120;48.308;8.914;2023-04-19T07:05:18;20.70;;;14.83;;
16031;SDS011;8120;48.308;8.914;2023-04-19T07:07:46;20.07;;;12.87;;
16031;SDS011;8120;48.308;8.914;2023-04-19T07:10:14;22.93;;;14.50;;
16031;SDS011;8120;48.308;8.914;2023-04-19T07:12:42;21.07;;;14.70;;
16031;SDS011;8120;48.308;8.914;2023-04-19T07:15:10;20.10;;;13.00;;
16031;SDS011;8120;48.308;8.914;2023-04-19T07:17:38;19.77;;;14.07;;
16031;SDS011;8120;48.308;8.914;2023-04-19T07:20:07;22.33;;;14.17;;
16031;SDS011;8120;48.308;8.914;2023-04-19T07:22:36;22.00;;;14.67;;
16031;SDS011;8120;48.308;8.914;2023-04-19T07:25:04;22.70;;;15.67;;
16031;SDS011;8120;48.308;8.914;2023-04-19T07:27:33;22.10;;;15.20;;
16031;SDS011;8120;48.308;8.914;2023-04-19T07:30:00;26.37;;;14.47;;
16031;SDS011;8120;48.308;8.914;2023-04-19T07:32:29;22.60;;;14.57;;
16031;SDS011;8120;48.308;8.914;2023-04-19T07:34:57;19.50;;;13.60;;
16031;SDS011;8120;48.308;8.914;2023-04-19T07:37:25;18.10;;;13.63;;
16031;SDS011;8120;48.308;8.914;2023-04-19T07:39:55;21.17;;;12.77;;
16031;SDS011;8120;48.308;8.914;2023-04-19T07:42:23;20.07;;;13.23;;
16031;SDS011;8120;48.308;8.914;2023-04-19T07:44:51;21.00;;;13.93;;
16031;SDS011;8120;48.308;8.914;2023-04-19T07:47:18;22.30;;;13.50;;
16031;SDS011;8120;48.308;8.914;2023-04-19T07:49:50;18.90;;;12.83;;
16031;SDS011;8120;48.308;8.914;2023-04-19T07:52:18;19.20;;;13.27;;
16031;SDS011;8120;48.308;8.914;2023-04-19T07:54:46;16.23;;;12.60;;
16031;SDS011;8120;48.308;8.914;2023-04-19T07:57:15;17.87;;;13.07;;
16031;SDS011;8120;48.308;8.914;2023-04-19T07:59:43;17.80;;;13.33;;
16031;SDS011;8120;48.308;8.914;2023-04-19T08:02:11;19.20;;;12.97;;
16031;SDS011;8120;48.308;8.914;2023-04-19T08:04:39;25.13;;;17.47;;
16031;SDS011;8120;48.308;8.914;2023-04-19T08:07:07;19.10;;;12.77;;
16031;SDS011;8120;48.308;8.914;2023-04-19T08:09:35;17.63;;;12.13;;
16031;SDS011;8120;48.308;8.914;2023-04-19T08:12:04;17.37;;;12.70;;
16031;SDS011;8120;48.308;8.914;2023-04-19T08:14:33;22.20;;;12.40;;
16031;SDS011;8120;48.308;8.914;2023-04-19T08:17:21;18.87;;;12.83;;
16031;SDS011;8120;48.308;8.914;2023-04-19T08:19:56;16.70;;;11.90;;
16031;SDS011;8120;48.308;8.914;2023-04-19T08:22:24;18.83;;;12.57;;
16031;SDS011;8120;48.308;8.914;2023-04-19T08:24:52;18.00;;;13.53;;
16031;SDS011;8120;48.308;8.914;2023-04-19T08:27:20;20.47;;;11.93;;
16031;SDS011;8120;48.308;8.914;2023-04-19T08:29:49;19.03;;;11.10;;
16031;SDS011;8120;48.308;8.914;2023-04-19T08:32:17;16.60;;;12.20;;
16031;SDS011;8120;48.308;8.914;2023-04-19T08:34:45;17.13;;;10.93;;
16031;SDS011;8120;48.308;8.914;2023-04-19T08:37:13;16.70;;;12.03;;
16031;SDS011;8120;48.308;8.914;2023-04-19T08:39:41;16.73;;;11.33;;
16031;SDS011;8120;48.308;8.914;2023-04-19T08:42:09;18.37;;;11.77;;
16031;SDS011;8120;48.308;8.914;2023-04-19T08:44:58;17.40;;;11.93;;
16031;SDS011;8120;48.308;8.914;2023-04-19T08:47:48;15.87;;;10.63;;
16031;SDS011;8120;48.308;8.914;2023-04-19T08:50:26;14.00;;;9.87;;
16031;SDS011;8120;48.308;8.914;2023-04-19T08:52:57;15.43;;;11.57;;
16031;SDS011;8120;48.308;8.914;2023-04-19T08:55:45;16.53;;;11.33;;
16031;SDS011;8120;48.308;8.914;2023-04-19T08:58:17;17.17;;;10.93;;
16031;SDS011;8120;48.308;8.914;2023-04-19T09:01:04;15.20;;;10.17;;
16031;SDS011;8120;48.308;8.914;2023-04-19T09:03:35;18.03;;;11.20;;
16031;SDS011;8120;48.308;8.914;2023-04-19T09:06:28;14.40;;;10.23;;
16031;SDS011;8120;48.308;8.914;2023-04-19T09:09:12;17.23;;;11.17;;
16031;SDS011;8120;48.308;8.914;2023-04-19T09:11:44;16.13;;;10.13;;
16031;SDS011;8120;48.308;8.914;2023-04-19T09:14:13;14.97;;;10.40;;
16031;SDS011;8120;48.308;8.914;2023-04-19T09:16:44;15.53;;;11.07;;
16031;SDS011;8120;48.308;8.914;2023-04-19T09:19:12;16.43;;;11.80;;
16031;SDS011;8120;48.308;8.914;2023-04-19T09:21:50;16.93;;;11.47;;
16031;SDS011;8120;48.308;8.914;2023-04-19T09:24:24;15.80;;;11.27;;
16031;SDS011;8120;48.308;8.914;2023-04-19T09:27:25;16.30;;;11.27;;
16031;SDS011;8120;48.308;8.914;2023-04-19T09:29:54;15.27;;;11.20;;
16031;SDS011;8120;48.308;8.914;2023-04-19T09:32:25;19.33;;;11.30;;
16031;SDS011;8120;48.308;8.914;2023-04-19T09:34:54;16.93;;;11.20;;
16031;SDS011;8120;48.308;8.914;2023-04-19T09:37:23;17.77;;;10.83;;
16031;SDS011;8120;48.308;8.914;2023-04-19T09:39:54;18.20;;;10.80;;
16031;SDS011;8120;48.308;8.914;2023-04-19T09:42:22;16.70;;;10.93;;
16031;SDS011;8120;48.308;8.914;2023-04-19T09:45:10;14.83;;;10.33;;
16031;SDS011;8120;48.308;8.914;2023-04-19T09:48:03;15.47;;;10.43;;
16031;SDS011;8120;48.308;8.914;2023-04-19T09:50:33;16.43;;;10.60;;
16031;SDS011;8120;48.308;8.914;2023-04-19T09:53:19;15.43;;;10.13;;
16031;SDS011;8120;48.308;8.914;2023-04-19T09:55:48;13.00;;;9.30;;
16031;SDS011;8120;48.308;8.914;2023-04-19T09:58:27;14.67;;;8.57;;
16031;SDS011;8120;48.308;8.914;2023-04-19T10:00:58;14.07;;;9.90;;
16031;SDS011;8120;48.308;8.914;2023-04-19T10:03:42;16.33;;;11.40;;
16031;SDS011;8120;48.308;8.914;2023-04-19T10:06:13;14.00;;;9.20;;
16031;SDS011;8120;48.308;8.914;2023-04-19T10:09:02;14.00;;;10.07;;
16031;SDS011;8120;48.308;8.914;2023-04-19T10:11:31;13.60;;;9.63;;
16031;SDS011;8120;48.308;8.914;2023-04-19T10:14:06;11.40;;;8.83;;
16031;SDS011;8120;48.308;8.914;2023-04-19T10:16:35;13.43;;;9.13;;
16031;SDS011;8120;48.308;8.914;2023-04-19T10:19:06;11.43;;;8.20;;
16031;SDS011;8120;48.308;8.914;2023-04-19T10:21:35;12.67;;;7.90;;
16031;SDS011;8120;48.308;8.914;2023-04-19T10:24:04;11.60;;;8.70;;
16031;SDS011;8120;48.308;8.914;2023-04-19T10:32:36;10.50;;;7.30;;
16031;SDS011;8120;48.308;8.914;2023-04-19T10:35:10;12.27;;;8.00;;
16031;SDS011;8120;48.308;8.914;2023-04-19T10:38:03;12.10;;;8.40;;
16031;SDS011;8120;48.308;8.914;2023-04-19T10:43:23;11.87;;;8.73;;
16031;SDS011;8120;48.308;8.914;2023-04-19T10:45:51;12.77;;;7.57;;
16031;SDS011;8120;48.308;8.914;2023-04-19T10:48:33;12.70;;;8.40;;
16031;SDS011;8120;48.308;8.914;2023-04-19T10:51:07;10.73;;;7.97;;
16031;SDS011;8120;48.308;8.914;2023-04-19T10:53:50;11.37;;;8.03;;
16031;SDS011;8120;48.308;8.914;2023-04-19T10:56:21;12.03;;;7.70;;
16031;SDS011;8120;48.308;8.914;2023-04-19T10:59:15;12.17;;;7.13;;
16031;SDS011;8120;48.308;8.914;2023-04-19T11:01:51;11.17;;;7.37;;
16031;SDS011;8120;48.308;8.914;2023-04-19T11:04:22;10.07;;;7.20;;
16031;SDS011;8120;48.308;8.914;2023-04-19T11:07:13;12.10;;;6.83;;
16031;SDS011;8120;48.308;8.914;2023-04-19T11:09:43;9.00;;;6.47;;
16031;SDS011;8120;48.308;8.914;2023-04-19T11:12:12;9.83;;;7.03;;
16031;SDS011;8120;48.308;8.914;2023-04-19T11:14:42;10.77;;;7.07;;
16031;SDS011;8120;48.308;8.914;2023-04-19T11:17:14;9.83;;;6.67;;
16031;SDS011;8120;48.308;8.914;2023-04-19T11:19:43;9.40;;;6.63;;
16031;SDS011;8120;48.308;8.914;2023-04-19T11:22:13;10.90;;;6.37;;
16031;SDS011;8120;48.308;8.914;2023-04-19T11:24:44;9.47;;;6.10;;
16031;SDS011;8120;48.308;8.914;2023-04-19T11:27:13;9.50;;;5.97;;
16031;SDS011;8120;48.308;8.914;2023-04-19T11:29:41;13.00;;;6.80;;
16031;SDS011;8120;48.308;8.914;2023-04-19T11:32:09;9.63;;;6.90;;
16031;SDS011;8120;48.308;8.914;2023-04-19T11:34:37;10.70;;;7.10;;
16031;SDS011;8120;48.308;8.914;2023-04-19T11:37:06;10.27;;;6.50;;
16031;SDS011;8120;48.308;8.914;2023-04-19T11:39:44;9.63;;;6.17;;
16031;SDS011;8120;48.308;8.914;2023-04-19T11:42:17;9.70;;;6.33;;
16031;SDS011;8120;48.308;8.914;2023-04-19T11:44:49;8.23;;;5.93;;
16031;SDS011;8120;48.308;8.914;2023-04-19T11:47:18;9.10;;;5.67;;
16031;SDS011;8120;48.308;8.914;2023-04-19T11:49:46;9.87;;;7.00;;
16031;SDS011;8120;48.308;8.914;2023-04-19T11:52:18;11.20;;;8.03;;
16031;SDS011;8120;48.308;8.914;2023-04-19T11:54:49;9.57;;;6.13;;
16031;SDS011;8120;48.308;8.914;2023-04-19T11:57:26;9.77;;;6.97;;
16031;SDS011;8120;48.308;8.914;2023-04-19T12:00:02;10.53;;;7.13;;
16031;SDS011;8120;48.308;8.914;2023-04-19T12:02:36;12.67;;;9.33;;
16031;SDS011;8120;48.308;8.914;2023-04-19T12:05:06;13.63;;;7.60;;
16031;SDS011;8120;48.308;8.914;2023-04-19T12:07:35;8.87;;;6.57;;
16031;SDS011;8120;48.308;8.914;2023-04-19T12:10:08;10.80;;;7.27;;
16031;SDS011;8120;48.308;8.914;2023-04-19T12:12:37;10.83;;;7.43;;
16031;SDS011;8120;48.308;8.914;2023-04-19T12:15:05;10.20;;;7.17;;
16031;SDS011;8120;48.308;8.914;2023-04-19T12:17:34;10.30;;;7.87;;
16031;SDS011;8120;48.308;8.914;2023-04-19T12:20:32;11.77;;;7.63;;
16031;SDS011;8120;48.308;8.914;2023-04-19T12:23:01;9.13;;;7.27;;
16031;SDS011;8120;48.308;8.914;2023-04-19T12:25:31;10.83;;;7.13;;
16031;SDS011;8120;48.308;8.914;2023-04-19T12:28:01;9.77;;;7.57;;
16031;SDS011;8120;48.308;8.914;2023-04-19T12:30:30;11.93;;;7.30;;
16031;SDS011;8120;48.308;8.914;2023-04-19T12:32:58;12.77;;;7.07;;
16031;SDS011;8120;48.308;8.914;2023-04-19T12:35:26;9.37;;;6.73;;
16031;SDS011;8120;48.308;8.914;2023-04-19T12:37:55;13.07;;;6.83;;
16031;SDS011;8120;48.308;8.914;2023-04-19T12:40:24;11.17;;;7.77;;
16031;SDS011;8120;48.308;8.914;2023-04-19T12:42:54;10.50;;;7.37;;
16031;SDS011;8120;48.308;8.914;2023-04-19T12:45:22;10.53;;;7.73;;
16031;SDS011;8120;48.308;8.914;2023-04-19T12:47:49;9.33;;;6.23;;
16031;SDS011;8120;48.308;8.914;2023-04-19T12:50:18;12.53;;;7.53;;
16031;SDS011;8120;48.308;8.914;2023-04-19T12:52:46;10.60;;;7.13;;
16031;SDS011;8120;48.308;8.914;2023-04-19T12:55:13;11.17;;;7.20;;
16031;SDS011;8120;48.308;8.914;2023-04-19T12:57:41;12.77;;;8.50;;
16031;SDS011;8120;48.308;8.914;2023-04-19T13:00:11;11.00;;;7.17;;
16031;SDS011;8120;48.308;8.914;2023-04-19T13:02:39;10.73;;;6.93;;
16031;SDS011;8120;48.308;8.914;2023-04-19T13:05:08;11.03;;;7.57;;
16031;SDS011;8120;48.308;8.914;2023-04-19T13:07:38;12.20;;;7.77;;
16031;SDS011;8120;48.308;8.914;2023-04-19T13:10:06;12.40;;;7.07;;
16031;SDS011;8120;48.308;8.914;2023-04-19T13:12:34;11.50;;;7.00;;
16031;SDS011;8120;48.308;8.914;2023-04-19T13:15:02;10.37;;;7.30;;
16031;SDS011;8120;48.308;8.914;2023-04-19T13:17:32;14.60;;;7.80;;
16031;SDS011;8120;48.308;8.914;2023-04-19T13:20:02;12.27;;;7.57;;
16031;SDS011;8120;48.308;8.914;2023-04-19T13:22:31;13.73;;;7.50;;
16031;SDS011;8120;48.308;8.914;2023-04-19T13:24:59;11.60;;;7.00;;
16031;SDS011;8120;48.308;8.914;2023-04-19T13:27:27;11.33;;;7.33;;
16031;SDS011;8120;48.308;8.914;2023-04-19T13:29:55;11.63;;;7.30;;
16031;SDS011;8120;48.308;8.914;2023-04-19T13:32:23;10.87;;;7.17;;
16031;SDS011;8120;48.308;8.914;2023-04-19T13:34:52;11.50;;;7.20;;
16031;SDS011;8120;48.308;8.914;2023-04-19T13:37:20;14.20;;;7.33;;
16031;SDS011;8120;48.308;8.914;2023-04-19T13:39:48;10.57;;;6.73;;
16031;SDS011;8120;48.308;8.914;2023-04-19T13:42:16;14.93;;;7.70;;
16031;SDS011;8120;48.308;8.914;2023-04-19T13:44:44;10.80;;;7.13;;
16031;SDS011;8120;48.308;8.914;2023-04-19T13:47:13;11.43;;;6.77;;
16031;SDS011;8120;48.308;8.914;2023-04-19T13:49:41;10.73;;;6.13;;
16031;SDS011;8120;48.308;8.914;2023-04-19T13:52:10;10.20;;;7.07;;
16031;SDS011;8120;48.308;8.914;2023-04-19T13:54:38;12.87;;;7.80;;
16031;SDS011;8120;48.308;8.914;2023-04-19T13:57:06;8.93;;;6.57;;
16031;SDS011;8120;48.308;8.914;2023-04-19T13:59:34;11.03;;;7.87;;
16031;SDS011;8120;48.308;8.914;2023-04-19T14:02:02;14.53;;;8.63;;
16031;SDS011;8120;48.308;8.914;2023-04-19T14:04:30;13.57;;;9.03;;
16031;SDS011;8120;48.308;8.914;2023-04-19T14:06:58;12.90;;;8.20;;
16031;SDS011;8120;48.308;8.914;2023-04-19T14:09:28;12.93;;;8.63;;
16031;SDS011;8120;48.308;8.914;2023-04-19T14:11:56;12.97;;;8.93;;
16031;SDS011;8120;48.308;8.914;2023-04-19T14:14:24;14.17;;;9.23;;
16031;SDS011;8120;48.308;8.914;2023-04-19T14:16:52;12.10;;;8.23;;
16031;SDS011;8120;48.308;8.914;2023-04-19T14:19:19;15.77;;;10.73;;
16031;SDS011;8120;48.308;8.914;2023-04-19T14:21:47;13.43;;;10.27;;
16031;SDS011;8120;48.308;8.914;2023-04-19T14:24:15;16.00;;;9.97;;
16031;SDS011;8120;48.308;8.914;2023-04-19T14:26:45;16.67;;;11.40;;
16031;SDS011;8120;48.308;8.914;2023-04-19T14:29:32;14.80;;;9.63;;
16031;SDS011;8120;48.308;8.914;2023-04-19T14:32:00;16.57;;;10.60;;
16031;SDS011;8120;48.308;8.914;2023-04-19T14:34:48;13.80;;;9.37;;
16031;SDS011;8120;48.308;8.914;2023-04-19T14:37:16;14.03;;;9.43;;
16031;SDS011;8120;48.308;8.914;2023-04-19T14:39:44;14.70;;;9.57;;
16031;SDS011;8120;48.308;8.914;2023-04-19T14:42:14;14.73;;;10.30;;
16031;SDS011;8120;48.308;8.914;2023-04-19T14:44:41;18.40;;;10.13;;
16031;SDS011;8120;48.308;8.914;2023-04-19T14:47:10;16.47;;;10.50;;
16031;SDS011;8120;48.308;8.914;2023-04-19T14:49:39;14.83;;;9.87;;
16031;SDS011;8120;48.308;8.914;2023-04-19T14:52:07;12.73;;;8.57;;
16031;SDS011;8120;48.308;8.914;2023-04-19T14:54:34;18.50;;;10.80;;
16031;SDS011;8120;48.308;8.914;2023-04-19T14:57:02;15.20;;;9.60;;
16031;SDS011;8120;48.308;8.914;2023-04-19T14:59:32;16.33;;;10.43;;
16031;SDS011;8120;48.308;8.914;2023-04-19T15:02:00;14.80;;;10.03;;
16031;SDS011;8120;48.308;8.914;2023-04-19T15:04:28;13.03;;;8.50;;
16031;SDS011;8120;48.308;8.914;2023-04-19T15:06:56;15.33;;;8.80;;